sensor_id;sensor_type;location;lat;lon;timestamp;P1;durP1;ratioP1;P2;durP2;ratioP2
42066;SDS011;27734;47.028;28.820;2023-02-28T00:00:36;28.93;;;15.83;;
42066;SDS011;27734;47.028;28.820;2023-02-28T00:03:18;30.77;;;16.27;;
42066;SDS011;27734;47.028;28.820;2023-02-28T00:05:49;29.63;;;15.17;;
42066;SDS011;27734;47.028;28.820;2023-02-28T00:08:21;32.63;;;16.77;;
42066;SDS011;27734;47.028;28.820;2023-02-28T00:10:52;32.87;;;16.87;;
42066;SDS011;27734;47.028;28.820;2023-02-28T00:13:23;36.20;;;17.63;;
42066;SDS011;27734;47.028;28.820;2023-02-28T00:16:01;31.50;;;17.17;;
42066;SDS011;27734;47.028;28.820;2023-02-28T00:18:34;31.50;;;15.90;;
42066;SDS011;27734;47.028;28.820;2023-02-28T00:21:06;33.13;;;17.07;;
42066;SDS011;27734;47.028;28.820;2023-02-28T00:23:38;34.87;;;17.90;;
42066;SDS011;27734;47.028;28.820;2023-02-28T00:26:09;34.27;;;18.63;;
42066;SDS011;27734;47.028;28.820;2023-02-28T00:28:41;36.50;;;18.17;;
42066;SDS011;27734;47.028;28.820;2023-02-28T00:31:12;35.00;;;18.07;;
42066;SDS011;27734;47.028;28.820;2023-02-28T00:33:44;33.93;;;17.87;;
42066;SDS011;27734;47.028;28.820;2023-02-28T00:36:16;34.10;;;18.60;;
42066;SDS011;27734;47.028;28.820;2023-02-28T00:38:47;35.20;;;18.40;;
42066;SDS011;27734;47.028;28.820;2023-02-28T00:41:18;31.90;;;16.57;;
42066;SDS011;27734;47.028;28.820;2023-02-28T00:43:50;36.33;;;18.50;;
42066;SDS011;27734;47.028;28.820;2023-02-28T00:46:21;33.77;;;18.33;;
42066;SDS011;27734;47.028;28.820;2023-02-28T00:48:52;37.13;;;18.87;;
42066;SDS011;27734;47.028;28.820;2023-02-28T00:51:24;33.37;;;17.87;;
42066;SDS011;27734;47.028;28.820;2023-02-28T00:53:55;33.43;;;17.80;;
42066;SDS011;27734;47.028;28.820;2023-02-28T00:56:26;33.53;;;18.00;;
42066;SDS011;27734;47.028;28.820;2023-02-28T00:58:58;33.90;;;18.03;;
42066;SDS011;27734;47.028;28.820;2023-02-28T01:01:29;34.83;;;18.57;;
42066;SDS011;27734;47.028;28.820;2023-02-28T01:04:00;31.70;;;16.67;;
42066;SDS011;27734;47.028;28.820;2023-02-28T01:06:32;31.03;;;17.47;;
42066;SDS011;27734;47.028;28.820;2023-02-28T01:09:04;31.90;;;17.83;;
42066;SDS011;27734;47.028;28.820;2023-02-28T01:11:36;34.40;;;17.17;;
42066;SDS011;27734;47.028;28.820;2023-02-28T01:14:10;39.30;;;18.17;;
42066;SDS011;27734;47.028;28.820;2023-02-28T01:16:44;35.30;;;19.30;;
42066;SDS011;27734;47.028;28.820;2023-02-28T01:19:15;31.50;;;17.65;;
42066;SDS011;27734;47.028;28.820;2023-02-28T01:21:49;32.98;;;18.60;;
42066;SDS011;27734;47.028;28.820;2023-02-28T01:24:20;34.97;;;17.90;;
42066;SDS011;27734;47.028;28.820;2023-02-28T01:26:51;33.07;;;17.73;;
42066;SDS011;27734;47.028;28.820;2023-02-28T01:29:25;32.33;;;17.73;;
42066;SDS011;27734;47.028;28.820;2023-02-28T01:31:56;35.63;;;18.07;;
42066;SDS011;27734;47.028;28.820;2023-02-28T01:34:28;33.80;;;17.90;;
42066;SDS011;27734;47.028;28.820;2023-02-28T01:37:00;32.55;;;17.60;;
42066;SDS011;27734;47.028;28.820;2023-02-28T01:39:31;35.00;;;19.33;;
42066;SDS011;27734;47.028;28.820;2023-02-28T01:42:02;33.70;;;17.63;;
42066;SDS011;27734;47.028;28.820;2023-02-28T01:47:27;34.60;;;17.97;;
42066;SDS011;27734;47.028;28.820;2023-02-28T01:50:03;33.63;;;18.03;;
42066;SDS011;27734;47.028;28.820;2023-02-28T01:52:39;36.43;;;19.07;;
42066;SDS011;27734;47.028;28.820;2023-02-28T01:55:11;37.87;;;19.97;;
42066;SDS011;27734;47.028;28.820;2023-02-28T01:57:45;36.37;;;19.93;;
42066;SDS011;27734;47.028;28.820;2023-02-28T02:00:19;38.17;;;19.93;;
42066;SDS011;27734;47.028;28.820;2023-02-28T02:02:53;38.83;;;21.17;;
42066;SDS011;27734;47.028;28.820;2023-02-28T02:08:01;38.60;;;21.10;;
42066;SDS011;27734;47.028;28.820;2023-02-28T02:10:34;37.90;;;19.83;;
42066;SDS011;27734;47.028;28.820;2023-02-28T02:13:13;40.00;;;20.30;;
42066;SDS011;27734;47.028;28.820;2023-02-28T02:15:56;41.50;;;22.57;;
42066;SDS011;27734;47.028;28.820;2023-02-28T02:18:43;41.27;;;20.30;;
42066;SDS011;27734;47.028;28.820;2023-02-28T02:21:21;40.83;;;21.47;;
42066;SDS011;27734;47.028;28.820;2023-02-28T02:24:20;41.10;;;21.17;;
42066;SDS011;27734;47.028;28.820;2023-02-28T02:27:20;39.73;;;20.87;;
42066;SDS011;27734;47.028;28.820;2023-02-28T02:30:26;40.07;;;21.07;;
42066;SDS011;27734;47.028;28.820;2023-02-28T02:33:26;34.57;;;18.57;;
42066;SDS011;27734;47.028;28.820;2023-02-28T02:36:22;34.73;;;18.13;;
42066;SDS011;27734;47.028;28.820;2023-02-28T02:38:58;36.17;;;20.20;;
42066;SDS011;27734;47.028;28.820;2023-02-28T02:41:35;35.73;;;18.07;;
42066;SDS011;27734;47.028;28.820;2023-02-28T02:44:12;32.15;;;17.35;;
42066;SDS011;27734;47.028;28.820;2023-02-28T02:46:51;37.23;;;19.23;;
42066;SDS011;27734;47.028;28.820;2023-02-28T02:49:30;36.07;;;18.00;;
42066;SDS011;27734;47.028;28.820;2023-02-28T02:52:06;33.47;;;17.73;;
42066;SDS011;27734;47.028;28.820;2023-02-28T02:54:40;34.73;;;19.17;;
42066;SDS011;27734;47.028;28.820;2023-02-28T02:57:14;35.35;;;18.32;;
42066;SDS011;27734;47.028;28.820;2023-02-28T02:59:49;33.77;;;17.77;;
42066;SDS011;27734;47.028;28.820;2023-02-28T03:02:24;34.00;;;17.57;;
42066;SDS011;27734;47.028;28.820;2023-02-28T03:05:03;33.37;;;18.03;;
42066;SDS011;27734;47.028;28.820;2023-02-28T03:07:42;33.33;;;18.43;;
42066;SDS011;27734;47.028;28.820;2023-02-28T03:10:28;32.90;;;17.83;;
42066;SDS011;27734;47.028;28.820;2023-02-28T03:13:03;37.07;;;19.10;;
42066;SDS011;27734;47.028;28.820;2023-02-28T03:15:47;36.90;;;20.57;;
42066;SDS011;27734;47.028;28.820;2023-02-28T03:18:29;36.13;;;19.77;;
42066;SDS011;27734;47.028;28.820;2023-02-28T03:21:09;34.57;;;19.50;;
42066;SDS011;27734;47.028;28.820;2023-02-28T03:23:51;34.60;;;19.17;;
42066;SDS011;27734;47.028;28.820;2023-02-28T03:26:30;36.07;;;19.40;;
42066;SDS011;27734;47.028;28.820;2023-02-28T03:29:06;39.63;;;21.57;;
42066;SDS011;27734;47.028;28.820;2023-02-28T03:31:47;39.60;;;21.07;;
42066;SDS011;27734;47.028;28.820;2023-02-28T03:34:24;36.13;;;19.70;;
42066;SDS011;27734;47.028;28.820;2023-02-28T03:36:59;38.80;;;20.03;;
42066;SDS011;27734;47.028;28.820;2023-02-28T03:39:36;38.53;;;21.23;;
42066;SDS011;27734;47.028;28.820;2023-02-28T03:42:11;40.65;;;21.00;;
42066;SDS011;27734;47.028;28.820;2023-02-28T03:44:45;35.47;;;19.10;;
42066;SDS011;27734;47.028;28.820;2023-02-28T03:47:21;38.57;;;20.90;;
42066;SDS011;27734;47.028;28.820;2023-02-28T03:49:58;36.17;;;19.47;;
42066;SDS011;27734;47.028;28.820;2023-02-28T03:52:36;37.73;;;20.17;;
42066;SDS011;27734;47.028;28.820;2023-02-28T03:55:13;40.60;;;20.53;;
42066;SDS011;27734;47.028;28.820;2023-02-28T03:57:50;39.10;;;20.25;;
42066;SDS011;27734;47.028;28.820;2023-02-28T04:00:30;35.53;;;19.20;;
42066;SDS011;27734;47.028;28.820;2023-02-28T04:03:04;40.50;;;21.07;;
42066;SDS011;27734;47.028;28.820;2023-02-28T04:05:38;38.83;;;20.53;;
42066;SDS011;27734;47.028;28.820;2023-02-28T04:10:51;38.17;;;19.93;;
42066;SDS011;27734;47.028;28.820;2023-02-28T04:13:26;38.77;;;20.33;;
42066;SDS011;27734;47.028;28.820;2023-02-28T04:15:57;44.10;;;20.43;;
42066;SDS011;27734;47.028;28.820;2023-02-28T04:18:28;39.97;;;21.20;;
42066;SDS011;27734;47.028;28.820;2023-02-28T04:21:01;37.77;;;19.10;;
42066;SDS011;27734;47.028;28.820;2023-02-28T04:23:32;38.40;;;20.80;;
42066;SDS011;27734;47.028;28.820;2023-02-28T04:26:04;39.93;;;20.37;;
42066;SDS011;27734;47.028;28.820;2023-02-28T04:28:36;35.50;;;19.00;;
42066;SDS011;27734;47.028;28.820;2023-02-28T04:31:08;39.43;;;21.10;;
42066;SDS011;27734;47.028;28.820;2023-02-28T04:33:40;36.27;;;18.37;;
42066;SDS011;27734;47.028;28.820;2023-02-28T04:36:11;35.53;;;19.93;;
42066;SDS011;27734;47.028;28.820;2023-02-28T04:38:46;38.70;;;20.23;;
42066;SDS011;27734;47.028;28.820;2023-02-28T04:41:17;35.77;;;19.60;;
42066;SDS011;27734;47.028;28.820;2023-02-28T04:43:50;36.17;;;19.03;;
42066;SDS011;27734;47.028;28.820;2023-02-28T04:46:21;37.97;;;20.33;;
42066;SDS011;27734;47.028;28.820;2023-02-28T04:48:53;36.67;;;19.50;;
42066;SDS011;27734;47.028;28.820;2023-02-28T04:51:24;37.03;;;20.17;;
42066;SDS011;27734;47.028;28.820;2023-02-28T04:53:55;37.30;;;20.57;;
42066;SDS011;27734;47.028;28.820;2023-02-28T04:56:27;36.57;;;18.73;;
42066;SDS011;27734;47.028;28.820;2023-02-28T04:58:58;36.33;;;19.17;;
42066;SDS011;27734;47.028;28.820;2023-02-28T05:01:30;38.00;;;19.23;;
42066;SDS011;27734;47.028;28.820;2023-02-28T05:06:34;36.55;;;18.95;;
42066;SDS011;27734;47.028;28.820;2023-02-28T05:09:05;40.17;;;20.67;;
42066;SDS011;27734;47.028;28.820;2023-02-28T05:11:36;35.20;;;19.43;;
42066;SDS011;27734;47.028;28.820;2023-02-28T05:14:09;37.27;;;19.13;;
42066;SDS011;27734;47.028;28.820;2023-02-28T05:19:12;39.23;;;19.40;;
42066;SDS011;27734;47.028;28.820;2023-02-28T05:21:48;39.53;;;19.40;;
42066;SDS011;27734;47.028;28.820;2023-02-28T05:24:21;36.60;;;19.10;;
42066;SDS011;27734;47.028;28.820;2023-02-28T05:26:53;37.40;;;18.70;;
42066;SDS011;27734;47.028;28.820;2023-02-28T05:29:24;39.13;;;19.67;;
42066;SDS011;27734;47.028;28.820;2023-02-28T05:31:56;37.33;;;19.63;;
42066;SDS011;27734;47.028;28.820;2023-02-28T05:34:27;40.17;;;19.13;;
42066;SDS011;27734;47.028;28.820;2023-02-28T05:36:58;41.50;;;21.17;;
42066;SDS011;27734;47.028;28.820;2023-02-28T05:39:30;38.87;;;21.87;;
42066;SDS011;27734;47.028;28.820;2023-02-28T05:42:02;40.57;;;21.17;;
42066;SDS011;27734;47.028;28.820;2023-02-28T05:44:35;38.98;;;20.55;;
42066;SDS011;27734;47.028;28.820;2023-02-28T05:47:10;41.97;;;21.60;;
42066;SDS011;27734;47.028;28.820;2023-02-28T05:49:43;39.27;;;20.27;;
42066;SDS011;27734;47.028;28.820;2023-02-28T05:52:17;39.25;;;20.27;;
42066;SDS011;27734;47.028;28.820;2023-02-28T05:54:50;40.70;;;19.37;;
42066;SDS011;27734;47.028;28.820;2023-02-28T05:57:21;38.43;;;19.13;;
42066;SDS011;27734;47.028;28.820;2023-02-28T05:59:53;38.20;;;20.57;;
42066;SDS011;27734;47.028;28.820;2023-02-28T06:02:24;37.23;;;18.63;;
42066;SDS011;27734;47.028;28.820;2023-02-28T06:04:56;38.67;;;20.40;;
42066;SDS011;27734;47.028;28.820;2023-02-28T06:07:28;41.83;;;22.23;;
42066;SDS011;27734;47.028;28.820;2023-02-28T06:09:59;39.60;;;21.13;;
42066;SDS011;27734;47.028;28.820;2023-02-28T06:12:30;38.93;;;19.90;;
42066;SDS011;27734;47.028;28.820;2023-02-28T06:15:02;40.67;;;21.13;;
42066;SDS011;27734;47.028;28.820;2023-02-28T06:17:34;40.57;;;21.47;;
42066;SDS011;27734;47.028;28.820;2023-02-28T06:20:07;36.53;;;19.47;;
42066;SDS011;27734;47.028;28.820;2023-02-28T06:22:41;38.17;;;19.70;;
42066;SDS011;27734;47.028;28.820;2023-02-28T06:25:13;35.83;;;18.80;;
42066;SDS011;27734;47.028;28.820;2023-02-28T06:27:47;40.07;;;20.37;;
42066;SDS011;27734;47.028;28.820;2023-02-28T06:30:19;37.73;;;20.47;;
42066;SDS011;27734;47.028;28.820;2023-02-28T06:32:55;41.73;;;20.10;;
42066;SDS011;27734;47.028;28.820;2023-02-28T06:35:26;34.17;;;18.33;;
42066;SDS011;27734;47.028;28.820;2023-02-28T06:38:00;42.73;;;19.77;;
42066;SDS011;27734;47.028;28.820;2023-02-28T06:40:32;37.27;;;19.23;;
42066;SDS011;27734;47.028;28.820;2023-02-28T06:43:03;38.93;;;20.37;;
42066;SDS011;27734;47.028;28.820;2023-02-28T06:45:35;35.93;;;19.47;;
42066;SDS011;27734;47.028;28.820;2023-02-28T06:48:06;35.77;;;19.67;;
42066;SDS011;27734;47.028;28.820;2023-02-28T06:50:38;36.70;;;18.23;;
42066;SDS011;27734;47.028;28.820;2023-02-28T06:53:15;31.53;;;17.33;;
42066;SDS011;27734;47.028;28.820;2023-02-28T06:55:46;37.83;;;17.73;;
42066;SDS011;27734;47.028;28.820;2023-02-28T06:58:18;33.40;;;17.97;;
42066;SDS011;27734;47.028;28.820;2023-02-28T07:00:51;32.97;;;18.23;;
42066;SDS011;27734;47.028;28.820;2023-02-28T07:03:25;35.20;;;18.17;;
42066;SDS011;27734;47.028;28.820;2023-02-28T07:05:57;32.67;;;16.80;;
42066;SDS011;27734;47.028;28.820;2023-02-28T07:08:29;34.53;;;16.90;;
42066;SDS011;27734;47.028;28.820;2023-02-28T07:11:04;36.20;;;18.00;;
42066;SDS011;27734;47.028;28.820;2023-02-28T07:13:35;33.83;;;17.50;;
42066;SDS011;27734;47.028;28.820;2023-02-28T07:16:10;31.47;;;16.57;;
42066;SDS011;27734;47.028;28.820;2023-02-28T07:18:42;33.30;;;17.20;;
42066;SDS011;27734;47.028;28.820;2023-02-28T07:21:15;32.45;;;16.75;;
42066;SDS011;27734;47.028;28.820;2023-02-28T07:23:51;34.30;;;16.90;;
42066;SDS011;27734;47.028;28.820;2023-02-28T07:26:25;33.20;;;17.33;;
42066;SDS011;27734;47.028;28.820;2023-02-28T07:29:06;32.83;;;17.17;;
42066;SDS011;27734;47.028;28.820;2023-02-28T07:31:40;31.03;;;17.10;;
42066;SDS011;27734;47.028;28.820;2023-02-28T07:34:15;35.00;;;17.30;;
42066;SDS011;27734;47.028;28.820;2023-02-28T07:36:47;33.83;;;17.57;;
42066;SDS011;27734;47.028;28.820;2023-02-28T07:39:25;32.60;;;17.27;;
42066;SDS011;27734;47.028;28.820;2023-02-28T07:42:13;33.23;;;16.90;;
42066;SDS011;27734;47.028;28.820;2023-02-28T07:44:56;31.07;;;16.87;;
42066;SDS011;27734;47.028;28.820;2023-02-28T07:47:40;30.37;;;15.60;;
42066;SDS011;27734;47.028;28.820;2023-02-28T07:50:29;30.33;;;16.67;;
42066;SDS011;27734;47.028;28.820;2023-02-28T07:53:33;30.17;;;16.12;;
42066;SDS011;27734;47.028;28.820;2023-02-28T07:56:12;29.43;;;16.60;;
42066;SDS011;27734;47.028;28.820;2023-02-28T07:58:46;30.07;;;16.07;;
42066;SDS011;27734;47.028;28.820;2023-02-28T08:01:24;30.63;;;15.73;;
42066;SDS011;27734;47.028;28.820;2023-02-28T08:03:56;33.07;;;15.53;;
42066;SDS011;27734;47.028;28.820;2023-02-28T08:06:29;31.53;;;17.17;;
42066;SDS011;27734;47.028;28.820;2023-02-28T08:09:05;31.07;;;17.63;;
42066;SDS011;27734;47.028;28.820;2023-02-28T08:11:44;33.47;;;17.73;;
42066;SDS011;27734;47.028;28.820;2023-02-28T08:14:30;30.60;;;16.57;;
42066;SDS011;27734;47.028;28.820;2023-02-28T08:17:04;32.50;;;16.55;;
42066;SDS011;27734;47.028;28.820;2023-02-28T08:19:37;30.30;;;16.07;;
42066;SDS011;27734;47.028;28.820;2023-02-28T08:22:11;31.93;;;17.20;;
42066;SDS011;27734;47.028;28.820;2023-02-28T08:24:47;30.23;;;16.80;;
42066;SDS011;27734;47.028;28.820;2023-02-28T08:27:24;34.10;;;16.73;;
42066;SDS011;27734;47.028;28.820;2023-02-28T08:30:01;32.03;;;16.53;;
42066;SDS011;27734;47.028;28.820;2023-02-28T08:32:39;31.40;;;17.30;;
42066;SDS011;27734;47.028;28.820;2023-02-28T08:35:12;33.13;;;17.93;;
42066;SDS011;27734;47.028;28.820;2023-02-28T08:37:51;31.67;;;16.93;;
42066;SDS011;27734;47.028;28.820;2023-02-28T08:40:24;30.60;;;16.73;;
42066;SDS011;27734;47.028;28.820;2023-02-28T08:43:01;31.07;;;16.80;;
42066;SDS011;27734;47.028;28.820;2023-02-28T08:52:00;29.43;;;15.60;;
42066;SDS011;27734;47.028;28.820;2023-02-28T08:54:49;29.03;;;15.80;;
42066;SDS011;27734;47.028;28.820;2023-02-28T08:57:29;29.93;;;16.10;;
42066;SDS011;27734;47.028;28.820;2023-02-28T09:00:03;32.47;;;18.57;;
42066;SDS011;27734;47.028;28.820;2023-02-28T09:02:38;30.20;;;16.70;;
42066;SDS011;27734;47.028;28.820;2023-02-28T09:05:12;30.45;;;17.82;;
42066;SDS011;27734;47.028;28.820;2023-02-28T09:07:50;29.77;;;16.90;;
42066;SDS011;27734;47.028;28.820;2023-02-28T09:16:01;26.47;;;15.00;;
42066;SDS011;27734;47.028;28.820;2023-02-28T09:18:37;29.93;;;16.20;;
42066;SDS011;27734;47.028;28.820;2023-02-28T09:21:14;32.13;;;16.60;;
42066;SDS011;27734;47.028;28.820;2023-02-28T09:23:49;27.43;;;15.10;;
42066;SDS011;27734;47.028;28.820;2023-02-28T09:26:26;27.43;;;15.57;;
42066;SDS011;27734;47.028;28.820;2023-02-28T09:29:02;27.87;;;15.00;;
42066;SDS011;27734;47.028;28.820;2023-02-28T09:31:39;28.37;;;15.00;;
42066;SDS011;27734;47.028;28.820;2023-02-28T09:34:11;27.90;;;14.43;;
42066;SDS011;27734;47.028;28.820;2023-02-28T09:36:47;29.65;;;15.20;;
42066;SDS011;27734;47.028;28.820;2023-02-28T09:39:23;29.20;;;14.77;;
42066;SDS011;27734;47.028;28.820;2023-02-28T09:41:58;27.13;;;14.83;;
42066;SDS011;27734;47.028;28.820;2023-02-28T09:44:36;26.23;;;14.07;;
42066;SDS011;27734;47.028;28.820;2023-02-28T09:47:27;27.27;;;13.97;;
42066;SDS011;27734;47.028;28.820;2023-02-28T09:50:06;26.60;;;14.10;;
42066;SDS011;27734;47.028;28.820;2023-02-28T09:52:48;25.90;;;14.10;;
42066;SDS011;27734;47.028;28.820;2023-02-28T09:55:23;25.63;;;13.63;;
42066;SDS011;27734;47.028;28.820;2023-02-28T09:58:02;26.77;;;13.70;;
42066;SDS011;27734;47.028;28.820;2023-02-28T10:00:37;25.17;;;13.53;;
42066;SDS011;27734;47.028;28.820;2023-02-28T10:03:21;23.67;;;12.97;;
42066;SDS011;27734;47.028;28.820;2023-02-28T10:06:11;24.50;;;12.83;;
42066;SDS011;27734;47.028;28.820;2023-02-28T10:08:52;23.50;;;12.90;;
42066;SDS011;27734;47.028;28.820;2023-02-28T10:11:36;26.90;;;12.57;;
42066;SDS011;27734;47.028;28.820;2023-02-28T10:14:18;24.77;;;13.13;;
42066;SDS011;27734;47.028;28.820;2023-02-28T10:16:59;23.80;;;13.27;;
42066;SDS011;27734;47.028;28.820;2023-02-28T10:19:40;23.60;;;12.93;;
42066;SDS011;27734;47.028;28.820;2023-02-28T10:22:24;23.60;;;13.27;;
42066;SDS011;27734;47.028;28.820;2023-02-28T10:25:05;24.10;;;12.87;;
42066;SDS011;27734;47.028;28.820;2023-02-28T10:27:49;22.57;;;11.53;;
42066;SDS011;27734;47.028;28.820;2023-02-28T10:30:24;25.10;;;12.67;;
42066;SDS011;27734;47.028;28.820;2023-02-28T10:35:33;21.20;;;11.53;;
42066;SDS011;27734;47.028;28.820;2023-02-28T10:38:09;23.00;;;11.87;;
42066;SDS011;27734;47.028;28.820;2023-02-28T10:40:52;23.47;;;11.93;;
42066;SDS011;27734;47.028;28.820;2023-02-28T10:43:44;25.03;;;12.20;;
42066;SDS011;27734;47.028;28.820;2023-02-28T10:46:16;22.47;;;11.63;;
42066;SDS011;27734;47.028;28.820;2023-02-28T10:49:03;22.85;;;11.88;;
42066;SDS011;27734;47.028;28.820;2023-02-28T10:54:41;23.30;;;12.50;;
42066;SDS011;27734;47.028;28.820;2023-02-28T10:57:18;23.03;;;12.80;;
42066;SDS011;27734;47.028;28.820;2023-02-28T11:00:05;24.13;;;12.87;;
42066;SDS011;27734;47.028;28.820;2023-02-28T11:02:50;25.87;;;13.87;;
42066;SDS011;27734;47.028;28.820;2023-02-28T11:05:38;25.67;;;14.00;;
42066;SDS011;27734;47.028;28.820;2023-02-28T11:08:16;22.00;;;12.00;;
42066;SDS011;27734;47.028;28.820;2023-02-28T11:10:57;22.70;;;11.90;;
42066;SDS011;27734;47.028;28.820;2023-02-28T11:13:47;25.00;;;12.87;;
42066;SDS011;27734;47.028;28.820;2023-02-28T11:16:32;23.10;;;12.20;;
42066;SDS011;27734;47.028;28.820;2023-02-28T11:19:16;22.60;;;11.97;;
42066;SDS011;27734;47.028;28.820;2023-02-28T11:22:01;22.53;;;12.43;;
42066;SDS011;27734;47.028;28.820;2023-02-28T11:24:35;24.37;;;12.13;;
42066;SDS011;27734;47.028;28.820;2023-02-28T11:27:26;24.10;;;11.80;;
42066;SDS011;27734;47.028;28.820;2023-02-28T11:30:32;22.30;;;10.90;;
42066;SDS011;27734;47.028;28.820;2023-02-28T11:33:27;23.50;;;12.20;;
42066;SDS011;27734;47.028;28.820;2023-02-28T11:36:02;21.90;;;11.47;;
42066;SDS011;27734;47.028;28.820;2023-02-28T11:38:40;23.20;;;11.87;;
42066;SDS011;27734;47.028;28.820;2023-02-28T11:44:26;21.65;;;11.20;;
42066;SDS011;27734;47.028;28.820;2023-02-28T11:47:09;20.07;;;10.63;;
42066;SDS011;27734;47.028;28.820;2023-02-28T11:50:08;20.95;;;11.38;;
42066;SDS011;27734;47.028;28.820;2023-02-28T11:53:10;22.45;;;10.80;;
42066;SDS011;27734;47.028;28.820;2023-02-28T11:55:57;21.10;;;11.00;;
42066;SDS011;27734;47.028;28.820;2023-02-28T11:58:51;21.53;;;10.83;;
42066;SDS011;27734;47.028;28.820;2023-02-28T12:01:51;20.27;;;9.87;;
42066;SDS011;27734;47.028;28.820;2023-02-28T12:04:37;21.80;;;11.17;;
42066;SDS011;27734;47.028;28.820;2023-02-28T12:07:29;19.10;;;10.00;;
42066;SDS011;27734;47.028;28.820;2023-02-28T12:10:10;21.73;;;10.60;;
42066;SDS011;27734;47.028;28.820;2023-02-28T12:12:54;22.23;;;10.53;;
42066;SDS011;27734;47.028;28.820;2023-02-28T12:15:46;21.20;;;9.85;;
42066;SDS011;27734;47.028;28.820;2023-02-28T12:18:51;21.68;;;9.88;;
42066;SDS011;27734;47.028;28.820;2023-02-28T12:21:33;19.20;;;10.03;;
42066;SDS011;27734;47.028;28.820;2023-02-28T12:24:24;20.27;;;9.77;;
42066;SDS011;27734;47.028;28.820;2023-02-28T12:27:09;21.00;;;9.97;;
42066;SDS011;27734;47.028;28.820;2023-02-28T12:29:47;19.77;;;9.57;;
42066;SDS011;27734;47.028;28.820;2023-02-28T12:32:30;19.57;;;9.90;;
42066;SDS011;27734;47.028;28.820;2023-02-28T12:35:11;20.27;;;10.17;;
42066;SDS011;27734;47.028;28.820;2023-02-28T12:37:49;19.63;;;10.17;;
42066;SDS011;27734;47.028;28.820;2023-02-28T12:43:53;18.47;;;9.30;;
42066;SDS011;27734;47.028;28.820;2023-02-28T12:46:57;21.47;;;9.77;;
42066;SDS011;27734;47.028;28.820;2023-02-28T12:49:49;17.40;;;9.03;;
42066;SDS011;27734;47.028;28.820;2023-02-28T12:52:51;19.53;;;8.90;;
42066;SDS011;27734;47.028;28.820;2023-02-28T12:55:33;19.87;;;10.60;;
42066;SDS011;27734;47.028;28.820;2023-02-28T12:58:13;21.17;;;10.50;;
42066;SDS011;27734;47.028;28.820;2023-02-28T13:01:10;21.30;;;10.23;;
42066;SDS011;27734;47.028;28.820;2023-02-28T13:04:18;22.00;;;10.23;;
42066;SDS011;27734;47.028;28.820;2023-02-28T13:07:16;20.33;;;9.27;;
42066;SDS011;27734;47.028;28.820;2023-02-28T13:10:14;19.25;;;9.10;;
42066;SDS011;27734;47.028;28.820;2023-02-28T13:12:53;22.27;;;10.50;;
42066;SDS011;27734;47.028;28.820;2023-02-28T13:15:36;20.80;;;10.20;;
42066;SDS011;27734;47.028;28.820;2023-02-28T13:18:27;22.00;;;10.70;;
42066;SDS011;27734;47.028;28.820;2023-02-28T13:21:23;18.97;;;9.40;;
42066;SDS011;27734;47.028;28.820;2023-02-28T13:24:01;19.63;;;9.37;;
42066;SDS011;27734;47.028;28.820;2023-02-28T13:29:57;20.30;;;8.93;;
42066;SDS011;27734;47.028;28.820;2023-02-28T13:32:36;18.23;;;8.67;;
42066;SDS011;27734;47.028;28.820;2023-02-28T13:35:15;19.67;;;8.80;;
42066;SDS011;27734;47.028;28.820;2023-02-28T13:38:21;21.43;;;9.03;;
42066;SDS011;27734;47.028;28.820;2023-02-28T13:44:04;23.50;;;9.93;;
42066;SDS011;27734;47.028;28.820;2023-02-28T13:49:44;18.50;;;8.20;;
42066;SDS011;27734;47.028;28.820;2023-02-28T13:52:18;18.60;;;8.50;;
42066;SDS011;27734;47.028;28.820;2023-02-28T13:58:03;19.70;;;9.03;;
42066;SDS011;27734;47.028;28.820;2023-02-28T14:01:11;22.20;;;10.27;;
42066;SDS011;27734;47.028;28.820;2023-02-28T14:04:11;20.00;;;9.47;;
42066;SDS011;27734;47.028;28.820;2023-02-28T14:07:02;18.43;;;8.63;;
42066;SDS011;27734;47.028;28.820;2023-02-28T14:09:44;18.57;;;9.17;;
42066;SDS011;27734;47.028;28.820;2023-02-28T14:18:32;16.07;;;7.67;;
42066;SDS011;27734;47.028;28.820;2023-02-28T14:21:13;14.87;;;7.53;;
42066;SDS011;27734;47.028;28.820;2023-02-28T14:27:15;15.83;;;7.33;;
42066;SDS011;27734;47.028;28.820;2023-02-28T14:33:11;14.00;;;6.45;;
42066;SDS011;27734;47.028;28.820;2023-02-28T14:36:03;15.63;;;6.53;;
42066;SDS011;27734;47.028;28.820;2023-02-28T14:38:42;15.13;;;6.70;;
42066;SDS011;27734;47.028;28.820;2023-02-28T14:41:23;16.87;;;6.97;;
42066;SDS011;27734;47.028;28.820;2023-02-28T14:44:01;13.73;;;6.63;;
42066;SDS011;27734;47.028;28.820;2023-02-28T14:46:44;13.90;;;6.30;;
42066;SDS011;27734;47.028;28.820;2023-02-28T14:49:21;13.60;;;6.13;;
42066;SDS011;27734;47.028;28.820;2023-02-28T14:52:10;14.50;;;6.93;;
42066;SDS011;27734;47.028;28.820;2023-02-28T14:54:47;16.17;;;6.83;;
42066;SDS011;27734;47.028;28.820;2023-02-28T14:57:25;13.93;;;6.37;;
42066;SDS011;27734;47.028;28.820;2023-02-28T15:00:00;13.33;;;6.23;;
42066;SDS011;27734;47.028;28.820;2023-02-28T15:02:39;14.03;;;6.77;;
42066;SDS011;27734;47.028;28.820;2023-02-28T15:05:21;15.60;;;6.53;;
42066;SDS011;27734;47.028;28.820;2023-02-28T15:08:04;14.27;;;6.30;;
42066;SDS011;27734;47.028;28.820;2023-02-28T15:10:50;17.30;;;8.13;;
42066;SDS011;27734;47.028;28.820;2023-02-28T15:13:26;17.63;;;8.23;;
42066;SDS011;27734;47.028;28.820;2023-02-28T15:16:29;17.43;;;8.27;;
42066;SDS011;27734;47.028;28.820;2023-02-28T15:19:13;19.37;;;8.17;;
42066;SDS011;27734;47.028;28.820;2023-02-28T15:21:54;21.87;;;8.07;;
42066;SDS011;27734;47.028;28.820;2023-02-28T15:24:35;19.83;;;9.10;;
42066;SDS011;27734;47.028;28.820;2023-02-28T15:27:26;20.23;;;9.27;;
42066;SDS011;27734;47.028;28.820;2023-02-28T15:30:05;19.93;;;9.20;;
42066;SDS011;27734;47.028;28.820;2023-02-28T15:32:51;21.23;;;10.87;;
42066;SDS011;27734;47.028;28.820;2023-02-28T15:35:40;22.27;;;9.90;;
42066;SDS011;27734;47.028;28.820;2023-02-28T15:38:15;22.73;;;9.87;;
42066;SDS011;27734;47.028;28.820;2023-02-28T15:40:52;20.87;;;9.43;;
42066;SDS011;27734;47.028;28.820;2023-02-28T15:43:27;21.17;;;10.23;;
42066;SDS011;27734;47.028;28.820;2023-02-28T15:46:01;19.63;;;9.20;;
42066;SDS011;27734;47.028;28.820;2023-02-28T15:48:36;20.03;;;9.77;;
42066;SDS011;27734;47.028;28.820;2023-02-28T15:51:14;20.73;;;10.00;;
42066;SDS011;27734;47.028;28.820;2023-02-28T15:53:51;21.43;;;10.43;;
42066;SDS011;27734;47.028;28.820;2023-02-28T15:56:27;22.83;;;10.73;;
42066;SDS011;27734;47.028;28.820;2023-02-28T15:59:02;21.73;;;11.00;;
42066;SDS011;27734;47.028;28.820;2023-02-28T16:01:35;24.85;;;12.63;;
42066;SDS011;27734;47.028;28.820;2023-02-28T16:04:13;26.40;;;12.90;;
42066;SDS011;27734;47.028;28.820;2023-02-28T16:06:53;29.83;;;14.13;;
42066;SDS011;27734;47.028;28.820;2023-02-28T16:09:33;22.93;;;12.20;;
42066;SDS011;27734;47.028;28.820;2023-02-28T16:12:08;24.37;;;12.73;;
42066;SDS011;27734;47.028;28.820;2023-02-28T16:14:41;27.13;;;13.20;;
42066;SDS011;27734;47.028;28.820;2023-02-28T16:17:16;25.70;;;12.80;;